createdAt,value
2019-03-25T07:41:08.956Z,421.88
2019-03-25T07:42:09.124Z,466.88
2019-03-25T07:43:09.291Z,545.63
2019-03-25T07:44:09.456Z,455.63
2019-03-25T07:45:09.625Z,489.38
2019-03-25T07:46:09.794Z,478.13
2019-03-25T07:47:09.958Z,455.63
2019-03-25T07:48:10.133Z,596.25
2019-03-25T07:49:10.295Z,624.38
2019-03-25T07:50:10.463Z,669.38
2019-03-25T07:51:10.639Z,714.38
2019-03-25T07:52:10.807Z,483.75
2019-03-25T07:53:10.975Z,489.38
2019-03-25T07:54:11.163Z,551.25
2019-03-25T07:55:11.334Z,821.25
2019-03-25T07:56:11.479Z,450.00
2019-03-25T07:57:11.902Z,708.75
2019-03-25T07:58:11.830Z,905.63
2019-03-25T07:59:11.998Z,500.63
2019-03-25T08:00:13.717Z,478.13
2019-03-25T08:01:12.349Z,973.13
2019-03-25T08:02:15.095Z,590.63
2019-03-25T08:03:12.671Z,551.25
2019-03-25T08:04:12.840Z,562.50
2019-03-25T08:05:13.009Z,573.75
2019-03-25T08:06:13.188Z,483.75
2019-03-25T08:07:13.352Z,534.38
2019-03-25T08:08:13.532Z,551.25
2019-03-25T08:09:13.722Z,585.00
2019-03-25T08:10:13.901Z,573.75
2019-03-25T08:11:14.060Z,455.63
2019-03-25T08:12:14.219Z,483.75
2019-03-25T08:13:14.501Z,511.88
2019-03-25T08:14:14.552Z,500.63
2019-03-25T08:15:14.740Z,1001.25
2019-03-25T08:16:14.907Z,551.25
2019-03-25T08:17:15.065Z,1170.00
2019-03-25T08:18:15.238Z,433.13
2019-03-25T08:19:15.407Z,483.75
2019-03-25T08:20:15.578Z,607.50
2019-03-25T08:21:15.749Z,590.63
2019-03-25T08:22:15.919Z,410.63
2019-03-25T08:23:16.090Z,365.63
2019-03-25T08:24:16.260Z,354.38
2019-03-25T08:25:16.433Z,348.75
2019-03-25T08:26:16.604Z,343.13
2019-03-25T08:27:16.776Z,360.00
2019-03-25T08:28:16.946Z,393.75
2019-03-25T08:29:17.118Z,416.25
2019-03-25T08:30:17.289Z,472.50
2019-03-25T08:31:17.459Z,433.13
2019-03-25T08:32:17.630Z,388.13
2019-03-25T08:33:17.802Z,399.38
2019-03-25T08:34:17.975Z,461.25
2019-03-25T08:35:18.142Z,540.00
2019-03-25T08:36:18.315Z,556.88
2019-03-25T08:37:18.484Z,433.13
2019-03-25T08:38:18.652Z,331.88
2019-03-25T08:39:18.827Z,331.88
2019-03-25T08:40:19.001Z,354.38
2019-03-25T08:41:19.172Z,382.50
2019-03-25T08:42:19.346Z,331.88
2019-03-25T08:43:19.511Z,303.75
2019-03-25T08:44:19.684Z,292.50
2019-03-25T08:45:19.856Z,315.00
2019-03-25T08:46:20.025Z,354.38
2019-03-25T08:47:20.200Z,331.88
2019-03-25T08:48:20.371Z,315.00
2019-03-25T08:49:20.542Z,337.50
2019-03-25T08:50:20.722Z,444.38
2019-03-25T08:51:20.886Z,579.38
2019-03-25T08:52:21.055Z,748.13
2019-03-25T08:53:21.227Z,731.25
2019-03-25T08:54:21.974Z,793.13
2019-03-25T08:55:21.555Z,511.88
2019-03-25T08:56:21.730Z,551.25
2019-03-25T08:57:21.910Z,641.25
2019-03-25T08:58:22.069Z,658.13
2019-03-25T08:59:22.237Z,528.75
2019-03-25T09:00:22.411Z,489.38
2019-03-25T09:01:22.583Z,461.25
2019-03-25T09:02:22.753Z,466.88
2019-03-25T09:03:22.923Z,478.13
2019-03-25T09:04:23.095Z,511.88
2019-03-25T09:05:23.268Z,489.38
2019-03-25T09:06:23.437Z,495.00
2019-03-25T09:07:23.606Z,511.88
2019-03-25T09:08:23.775Z,517.50
2019-03-25T09:09:23.953Z,517.50
2019-03-25T09:10:24.120Z,534.38
2019-03-25T09:11:24.288Z,585.00
2019-03-25T09:12:24.460Z,697.50
2019-03-25T09:13:24.636Z,697.50
2019-03-25T09:14:24.801Z,787.50
2019-03-25T09:15:24.978Z,990.00
2019-03-25T09:16:25.143Z,2829.38
2019-03-25T09:17:25.313Z,2756.25
2019-03-25T09:18:25.482Z,877.50
2019-03-25T09:19:25.655Z,939.38
2019-03-25T09:20:25.828Z,933.75
2019-03-25T09:21:25.999Z,1507.50
2019-03-25T09:22:26.168Z,2761.88
2019-03-25T09:23:26.348Z,2773.13
2019-03-25T09:24:26.514Z,2756.25
2019-03-25T09:25:26.683Z,2801.25
2019-03-25T09:26:26.855Z,2947.50
2019-03-25T09:27:27.027Z,3031.88
2019-03-25T09:28:27.205Z,2851.88
2019-03-25T09:29:27.369Z,1158.75
2019-03-25T09:30:27.542Z,1563.75
2019-03-25T09:31:36.338Z,1395.00
2019-03-25T09:32:27.889Z,1614.38
2019-03-25T09:33:28.064Z,1074.38
2019-03-25T09:34:28.238Z,978.75
2019-03-25T09:35:28.407Z,849.38
2019-03-25T09:36:28.580Z,708.75
2019-03-25T09:37:28.754Z,646.88
2019-03-25T09:38:28.926Z,607.50
2019-03-25T09:39:29.104Z,551.25
2019-03-25T09:40:29.274Z,461.25
2019-03-25T09:41:29.444Z,382.50
2019-03-25T09:42:29.617Z,337.50
2019-03-25T09:43:29.788Z,365.63
2019-03-25T09:44:29.960Z,483.75
2019-03-25T09:45:30.131Z,585.00
2019-03-25T09:46:30.301Z,579.38
2019-03-25T09:47:30.472Z,500.63
2019-03-25T09:48:30.645Z,545.63
2019-03-25T09:49:30.816Z,568.13
2019-03-25T09:50:30.988Z,534.38
2019-03-25T09:51:31.170Z,528.75
2019-03-25T09:52:38.523Z,545.63
2019-03-25T09:53:31.502Z,590.63
2019-03-25T09:54:31.674Z,708.75
2019-03-25T09:55:31.844Z,781.88
2019-03-25T09:56:32.015Z,798.75
2019-03-25T09:57:32.186Z,759.38
2019-03-25T09:58:36.454Z,697.50
2019-03-25T09:59:32.527Z,669.38
2019-03-25T10:00:32.697Z,635.63
2019-03-25T10:01:32.867Z,630.00
2019-03-25T10:02:33.039Z,573.75
2019-03-25T10:03:33.209Z,455.63
2019-03-25T10:04:33.380Z,416.25
2019-03-25T10:05:33.552Z,427.50
2019-03-25T10:06:33.723Z,461.25
2019-03-25T10:07:33.894Z,523.13
2019-03-25T10:08:34.068Z,652.50
2019-03-25T10:09:34.223Z,855.00
2019-03-25T10:10:34.396Z,1125.00
2019-03-25T10:11:34.568Z,3060.00
2019-03-25T10:12:34.740Z,3043.13
2019-03-25T10:13:34.913Z,3504.38
2019-03-25T10:14:35.083Z,1940.63
2019-03-25T10:15:35.253Z,1203.75
2019-03-25T10:16:35.423Z,950.63
2019-03-25T10:17:35.594Z,680.63
2019-03-25T10:18:35.765Z,573.75
2019-03-25T10:19:35.936Z,540.00
2019-03-25T10:20:36.105Z,534.38
2019-03-25T10:21:36.279Z,596.25
2019-03-25T10:22:36.455Z,697.50
2019-03-25T10:23:36.618Z,731.25
2019-03-25T10:24:36.787Z,849.38
2019-03-25T10:25:36.956Z,1035.00
2019-03-25T10:26:37.128Z,1153.13
2019-03-25T10:27:37.309Z,1029.38
2019-03-25T10:28:47.876Z,849.38
2019-03-25T10:29:37.657Z,630.00
2019-03-25T10:30:37.828Z,421.88
2019-03-25T10:31:38.000Z,270.00
2019-03-25T10:32:38.170Z,202.50
2019-03-25T10:33:38.342Z,168.75
2019-03-25T10:34:38.515Z,151.88
2019-03-25T10:35:38.686Z,129.38
2019-03-25T10:36:38.860Z,123.75
2019-03-25T10:37:39.032Z,157.50
2019-03-25T10:38:39.205Z,174.38
2019-03-25T10:39:39.375Z,168.75
2019-03-25T10:40:39.549Z,185.63
2019-03-25T10:41:39.719Z,258.75
2019-03-25T10:42:39.900Z,354.38
2019-03-25T10:43:40.075Z,399.38
2019-03-25T10:44:40.240Z,489.38
2019-03-25T10:45:40.415Z,607.50
2019-03-25T10:46:40.589Z,680.63
2019-03-25T10:47:40.755Z,720.00
2019-03-25T10:48:40.928Z,776.25
2019-03-25T10:49:41.104Z,821.25
2019-03-25T10:50:41.275Z,900.00
2019-03-25T10:51:41.445Z,967.50
2019-03-25T10:52:41.612Z,1215.00
2019-03-25T10:53:41.785Z,1395.00
2019-03-25T10:54:41.982Z,1535.63
2019-03-25T10:55:42.127Z,1175.63
2019-03-25T10:56:48.994Z,1591.88
2019-03-25T10:57:42.462Z,1153.13
2019-03-25T10:58:42.632Z,916.88
2019-03-25T10:59:42.804Z,826.88
2019-03-25T11:00:42.973Z,781.88
2019-03-25T11:01:43.144Z,708.75
2019-03-25T11:02:43.316Z,669.38
2019-03-25T11:03:43.489Z,680.63
2019-03-25T11:04:43.655Z,708.75
2019-03-25T11:05:43.826Z,708.75
2019-03-25T11:06:43.993Z,781.88
2019-03-25T11:07:44.164Z,787.50
2019-03-25T11:08:44.336Z,815.63
2019-03-25T11:09:44.505Z,1035.00
2019-03-25T11:10:44.665Z,1237.50
2019-03-25T11:11:44.835Z,1366.88
2019-03-25T11:12:45.009Z,1591.88
2019-03-25T11:13:45.177Z,1771.88
2019-03-25T11:14:45.348Z,2036.25
2019-03-25T11:15:45.537Z,2610.00
2019-03-25T11:16:45.696Z,2722.50
2019-03-25T11:17:45.880Z,3003.75
2019-03-25T11:18:46.048Z,2913.75
2019-03-25T11:19:46.219Z,3414.38
2019-03-25T11:20:46.389Z,3965.63
2019-03-25T11:21:46.559Z,3898.13
2019-03-25T11:22:46.731Z,4111.88
2019-03-25T11:23:46.904Z,2711.25
2019-03-25T11:24:47.073Z,4471.88
2019-03-25T11:25:47.252Z,4190.63
2019-03-25T11:26:47.414Z,4606.88
2019-03-25T11:27:54.304Z,4792.50
2019-03-25T11:28:47.759Z,4691.25
2019-03-25T11:29:47.929Z,4798.13
2019-03-25T11:30:48.103Z,4775.63
2019-03-25T11:31:48.279Z,4910.63
2019-03-25T11:32:48.450Z,5068.13
2019-03-25T11:33:48.624Z,5248.13
2019-03-25T11:34:48.804Z,5377.50
2019-03-25T11:35:48.974Z,1980.00
2019-03-25T11:36:49.152Z,1541.25
2019-03-25T11:37:49.323Z,1732.50
2019-03-25T11:38:49.500Z,5034.38
2019-03-25T11:39:49.676Z,5439.38
2019-03-25T11:40:49.849Z,2953.13
2019-03-25T11:41:50.026Z,1687.50
2019-03-25T11:42:50.198Z,4758.75
2019-03-25T11:43:50.376Z,5163.75
2019-03-25T11:44:50.549Z,2896.88
2019-03-25T11:45:50.727Z,5079.38
2019-03-25T11:46:50.902Z,5253.75
2019-03-25T11:47:51.078Z,4336.88
2019-03-25T11:48:51.255Z,3898.13
2019-03-25T11:49:51.432Z,3796.88
2019-03-25T11:50:51.611Z,2750.63
2019-03-25T11:51:51.799Z,3262.50
2019-03-25T11:52:51.973Z,3583.13
2019-03-25T11:53:52.220Z,2081.25
2019-03-25T11:54:52.334Z,1771.88
2019-03-25T11:55:52.515Z,1411.88
2019-03-25T11:56:52.689Z,1305.00
2019-03-25T11:57:52.866Z,1496.25
2019-03-25T11:58:53.042Z,1890.00
2019-03-25T11:59:53.219Z,1828.13
2019-03-25T12:00:53.394Z,1513.13
2019-03-25T12:01:53.572Z,2446.88
2019-03-25T12:02:53.747Z,5805.00
2019-03-25T12:03:53.926Z,3256.88
2019-03-25T12:04:54.101Z,1153.13
2019-03-25T12:05:54.277Z,1130.63
2019-03-25T12:06:54.451Z,731.25
2019-03-25T12:07:54.628Z,517.50
2019-03-25T12:08:54.805Z,444.38
2019-03-25T12:09:54.979Z,1029.38
2019-03-25T12:10:55.150Z,3065.63
2019-03-25T12:11:55.328Z,3324.38
2019-03-25T12:12:55.503Z,2615.63
2019-03-25T12:13:55.677Z,2480.63
2019-03-25T12:14:55.900Z,2694.38
2019-03-25T12:15:56.024Z,579.38
2019-03-25T12:16:56.199Z,343.13
2019-03-25T12:17:56.374Z,219.38
2019-03-25T12:18:56.550Z,180.00
2019-03-25T12:19:56.729Z,146.25
2019-03-25T12:20:56.898Z,135.00
2019-03-25T12:21:57.073Z,202.50
2019-03-25T12:22:57.247Z,292.50
2019-03-25T12:23:57.421Z,388.13
2019-03-25T12:24:57.639Z,540.00
2019-03-25T12:25:57.773Z,3982.50
2019-03-25T12:26:57.946Z,4381.88
2019-03-25T12:27:58.119Z,4522.50
2019-03-25T12:28:58.291Z,2908.13
2019-03-25T12:29:58.463Z,4291.88
2019-03-25T12:30:58.638Z,4691.25
2019-03-25T12:31:58.815Z,5433.75
2019-03-25T12:33:03.920Z,1327.50
2019-03-25T12:33:59.163Z,2171.25
2019-03-25T12:34:59.332Z,3217.50
2019-03-25T12:35:59.506Z,1591.88
2019-03-25T12:36:59.685Z,1305.00
2019-03-25T12:37:59.856Z,1991.25
2019-03-25T12:39:00.031Z,1783.13
2019-03-25T12:40:00.311Z,3470.63
2019-03-25T12:41:00.390Z,2165.63
2019-03-25T12:42:00.555Z,2733.75
2019-03-25T12:43:00.727Z,2250.00
2019-03-25T12:44:00.903Z,2953.13
2019-03-25T12:45:01.074Z,3189.38
2019-03-25T12:46:01.249Z,2306.25
2019-03-25T12:47:01.421Z,5450.63
2019-03-25T12:48:01.598Z,5197.50
2019-03-25T12:49:01.770Z,5456.25
2019-03-25T12:50:01.945Z,1935.00
2019-03-25T12:51:02.120Z,1513.13
2019-03-25T12:52:02.296Z,984.38
2019-03-25T12:53:02.471Z,691.88
2019-03-25T12:54:02.646Z,596.25
2019-03-25T12:55:02.820Z,545.63
2019-03-25T12:56:03.057Z,478.13
2019-03-25T12:57:03.174Z,450.00
2019-03-25T12:58:03.342Z,433.13
2019-03-25T12:59:03.518Z,360.00
2019-03-25T13:00:03.686Z,275.63
2019-03-25T13:01:03.851Z,264.38
2019-03-25T13:02:04.023Z,270.00
2019-03-25T13:03:04.200Z,219.38
2019-03-25T13:04:04.373Z,202.50
2019-03-25T13:05:04.550Z,196.88
2019-03-25T13:06:04.722Z,219.38
2019-03-25T13:07:04.896Z,270.00
2019-03-25T13:08:05.074Z,275.63
2019-03-25T13:09:05.243Z,320.63
2019-03-25T13:10:05.414Z,450.00
2019-03-25T13:11:05.588Z,596.25
2019-03-25T13:12:05.763Z,720.00
2019-03-25T13:13:05.934Z,686.25
2019-03-25T13:14:06.109Z,624.38
2019-03-25T13:15:06.282Z,669.38
2019-03-25T13:16:06.452Z,1074.38
2019-03-25T13:17:06.627Z,2750.63
2019-03-25T13:18:06.796Z,2975.63
2019-03-25T13:19:06.967Z,3195.00
2019-03-25T13:20:07.138Z,3898.13
2019-03-25T13:21:07.317Z,4500.00
2019-03-25T13:22:07.487Z,2306.25
2019-03-25T13:23:07.658Z,2373.75
2019-03-25T13:24:07.830Z,4680.00
2019-03-25T13:25:08.003Z,1310.63
2019-03-25T13:26:08.177Z,1766.25
2019-03-25T13:27:08.356Z,3943.13
2019-03-25T13:28:08.529Z,1788.75
2019-03-25T13:29:08.700Z,1310.63
2019-03-25T13:30:08.876Z,1614.38
2019-03-25T13:31:09.048Z,1203.75
2019-03-25T13:32:09.225Z,2773.13
2019-03-25T13:33:09.392Z,1282.50
2019-03-25T13:34:09.553Z,1642.50
2019-03-25T13:35:09.722Z,5225.63
2019-03-25T13:36:09.894Z,4055.63
2019-03-25T13:37:10.068Z,5686.88
2019-03-25T13:38:10.243Z,1215.00
2019-03-25T13:39:10.417Z,1321.88
2019-03-25T13:40:10.593Z,1361.25
2019-03-25T13:41:10.767Z,5433.75
2019-03-25T13:42:10.941Z,5135.63
2019-03-25T13:43:11.119Z,2626.88
2019-03-25T13:44:11.283Z,5225.63
2019-03-25T13:45:11.457Z,5208.75
2019-03-25T13:46:11.631Z,5231.25
2019-03-25T13:47:11.807Z,5214.38
2019-03-25T13:48:11.982Z,5225.63
2019-03-25T13:49:12.159Z,2829.38
2019-03-25T13:50:12.333Z,1591.88
2019-03-25T13:51:12.510Z,5045.63
2019-03-25T13:52:12.684Z,4966.88
2019-03-25T13:53:12.861Z,4938.75
2019-03-25T13:54:13.034Z,4921.88
2019-03-25T13:55:13.209Z,4843.13
2019-03-25T13:56:13.384Z,4809.38
2019-03-25T13:57:13.562Z,4764.38
2019-03-25T13:58:13.740Z,4747.50
2019-03-25T13:59:13.913Z,4809.38
2019-03-25T14:00:14.097Z,4764.38
2019-03-25T14:01:14.267Z,4708.13
2019-03-25T14:02:14.444Z,4910.63
2019-03-25T14:03:14.623Z,3442.50
2019-03-25T14:04:14.798Z,1923.75
2019-03-25T14:05:14.977Z,1732.50
2019-03-25T14:06:15.154Z,3622.50
2019-03-25T14:07:15.333Z,5276.25
2019-03-25T14:08:15.511Z,3110.63
2019-03-25T14:09:15.688Z,5439.38
2019-03-25T14:10:15.865Z,961.88
2019-03-25T14:11:16.042Z,5613.75
2019-03-25T14:12:16.217Z,5625.00
2019-03-25T14:13:16.398Z,5056.88
2019-03-25T14:14:16.573Z,5433.75
2019-03-25T14:15:16.750Z,5698.13
2019-03-25T14:16:16.996Z,5737.50
2019-03-25T14:17:17.134Z,5776.88
2019-03-25T14:18:17.329Z,5776.88
2019-03-25T14:19:17.503Z,5540.63
2019-03-25T14:20:17.679Z,5523.75
2019-03-25T14:21:17.859Z,3886.88
2019-03-25T14:22:18.036Z,855.00
2019-03-25T14:23:18.227Z,894.38
2019-03-25T14:24:18.382Z,1861.88
2019-03-25T14:25:18.559Z,967.50
2019-03-25T14:26:18.737Z,1704.38
2019-03-25T14:27:18.915Z,2244.38
2019-03-25T14:28:19.094Z,1276.88
2019-03-25T14:29:19.285Z,2463.75
2019-03-25T14:30:19.443Z,556.88
2019-03-25T14:31:19.619Z,433.13
2019-03-25T14:32:19.799Z,371.25
2019-03-25T14:33:19.978Z,348.75
2019-03-25T14:34:20.150Z,326.25
2019-03-25T14:35:20.329Z,309.38
2019-03-25T14:36:20.509Z,298.13
2019-03-25T14:37:20.679Z,298.13
2019-03-25T14:38:20.855Z,298.13
2019-03-25T14:39:21.034Z,292.50
2019-03-25T14:40:21.210Z,292.50
2019-03-25T14:41:21.385Z,292.50
2019-03-25T14:42:21.563Z,292.50
2019-03-25T14:43:21.787Z,270.00
2019-03-25T14:44:21.907Z,241.88
2019-03-25T14:45:26.306Z,253.13
2019-03-25T14:46:22.258Z,241.88
2019-03-25T14:47:22.432Z,275.63
2019-03-25T14:48:22.610Z,331.88
2019-03-25T14:49:22.780Z,1018.13
2019-03-25T14:50:22.956Z,888.75
2019-03-25T14:51:23.127Z,4016.25
2019-03-25T14:52:23.304Z,3976.88
2019-03-25T14:53:23.477Z,3920.63
2019-03-25T14:54:23.649Z,3751.88
2019-03-25T14:55:23.822Z,3706.88
2019-03-25T14:56:23.999Z,3633.75
2019-03-25T14:57:24.171Z,3718.13
2019-03-25T14:58:24.343Z,3521.25
2019-03-25T14:59:24.513Z,3273.75
2019-03-25T15:00:25.723Z,2385.00
2019-03-25T15:01:24.887Z,1563.75
2019-03-25T15:02:25.064Z,1080.00
2019-03-25T15:03:25.241Z,675.00
2019-03-25T15:04:25.414Z,573.75
2019-03-25T15:05:25.590Z,506.25
2019-03-25T15:06:25.765Z,517.50
2019-03-25T15:07:25.942Z,540.00
2019-03-25T15:08:26.123Z,562.50
2019-03-25T15:09:26.293Z,585.00
2019-03-25T15:10:26.467Z,506.25
2019-03-25T15:11:26.643Z,483.75
2019-03-25T15:12:26.818Z,495.00
2019-03-25T15:13:26.992Z,495.00
2019-03-25T15:14:27.167Z,444.38
2019-03-25T15:15:27.349Z,399.38
2019-03-25T15:16:27.522Z,376.88
2019-03-25T15:17:27.697Z,348.75
2019-03-25T15:18:27.868Z,303.75
2019-03-25T15:19:28.048Z,258.75
2019-03-25T15:20:28.218Z,208.13
2019-03-25T15:21:28.390Z,168.75
2019-03-25T15:22:28.565Z,163.13
2019-03-25T15:23:28.738Z,168.75
2019-03-25T15:24:28.909Z,174.38
2019-03-25T15:25:29.081Z,180.00
2019-03-25T15:26:29.251Z,196.88
2019-03-25T15:27:29.423Z,196.88
2019-03-25T15:28:29.600Z,174.38
2019-03-25T15:29:29.767Z,157.50
2019-03-25T15:30:35.899Z,174.38
2019-03-25T15:31:30.125Z,202.50
2019-03-25T15:32:30.299Z,241.88
2019-03-25T15:33:30.469Z,275.63
2019-03-25T15:34:30.640Z,500.63
2019-03-25T15:35:30.812Z,590.63
2019-03-25T15:36:30.984Z,461.25
2019-03-25T15:37:31.155Z,450.00
2019-03-25T15:38:31.326Z,354.38
2019-03-25T15:39:31.501Z,315.00
2019-03-25T15:40:31.701Z,298.13
2019-03-25T15:41:31.839Z,286.88
2019-03-25T15:42:32.011Z,281.25
2019-03-25T15:43:32.187Z,275.63
2019-03-25T15:44:32.355Z,275.63
2019-03-25T15:45:32.527Z,286.88
2019-03-25T15:46:32.704Z,292.50
2019-03-25T15:47:32.920Z,292.50
2019-03-25T15:48:33.044Z,303.75
2019-03-25T15:49:33.217Z,315.00
2019-03-25T15:50:33.385Z,331.88
2019-03-25T15:51:33.555Z,337.50
2019-03-25T15:52:33.728Z,388.13
2019-03-25T15:53:33.899Z,461.25
2019-03-25T15:54:34.073Z,894.38
2019-03-25T15:55:34.240Z,1029.38
2019-03-25T15:56:34.410Z,1198.13
2019-03-25T15:57:34.578Z,1080.00
2019-03-25T15:58:34.754Z,1299.38
2019-03-25T15:59:34.921Z,1181.25
2019-03-25T16:00:46.489Z,1260.00
2019-03-25T16:01:35.262Z,1220.63
2019-03-25T16:02:35.437Z,1074.38
2019-03-25T16:03:35.600Z,1113.75
2019-03-25T16:04:35.770Z,596.25
2019-03-25T16:05:35.941Z,416.25
2019-03-25T16:06:36.113Z,371.25
2019-03-25T16:07:36.284Z,354.38
2019-03-25T16:08:36.454Z,326.25
2019-03-25T16:09:36.626Z,292.50
2019-03-25T16:10:36.795Z,270.00
2019-03-25T16:11:36.967Z,241.88
2019-03-25T16:12:37.137Z,219.38
2019-03-25T16:13:37.308Z,191.25
2019-03-25T16:14:37.479Z,151.88
2019-03-25T16:15:37.654Z,112.50
2019-03-25T16:16:37.825Z,95.63
2019-03-25T16:17:37.994Z,101.25
2019-03-25T16:18:38.166Z,112.50
2019-03-25T16:19:38.334Z,118.13
2019-03-25T16:20:38.510Z,112.50
2019-03-25T16:21:38.677Z,112.50
2019-03-25T16:22:38.845Z,112.50
2019-03-25T16:23:39.015Z,112.50
2019-03-25T16:24:39.185Z,118.13
2019-03-25T16:25:39.355Z,146.25
2019-03-25T16:26:39.526Z,253.13
2019-03-25T16:27:39.701Z,736.88
2019-03-25T16:28:39.869Z,1001.25
2019-03-25T16:29:40.040Z,1074.38
2019-03-25T16:30:40.210Z,832.50
2019-03-25T16:31:40.386Z,793.13
2019-03-25T16:32:40.551Z,1068.75
2019-03-25T16:33:40.746Z,1490.63
2019-03-25T16:34:40.891Z,1569.38
2019-03-25T16:35:41.060Z,1957.50
2019-03-25T16:36:41.238Z,1845.00
2019-03-25T16:37:41.402Z,1018.13
2019-03-25T16:38:41.585Z,354.38
2019-03-25T16:39:41.748Z,416.25
2019-03-25T16:40:41.919Z,354.38
2019-03-25T16:41:42.088Z,270.00
2019-03-25T16:42:42.265Z,264.38
2019-03-25T16:43:42.432Z,241.88
2019-03-25T16:44:42.601Z,230.63
2019-03-25T16:45:42.773Z,202.50
2019-03-25T16:46:42.943Z,180.00
2019-03-25T16:47:43.117Z,151.88
2019-03-25T16:48:43.287Z,129.38
2019-03-25T16:49:43.457Z,112.50
2019-03-25T16:50:43.629Z,95.63
2019-03-25T16:51:43.812Z,95.63
2019-03-25T16:52:43.968Z,95.63
2019-03-25T16:53:44.137Z,101.25
2019-03-25T16:54:44.308Z,112.50
2019-03-25T16:55:44.480Z,118.13
2019-03-25T16:56:44.652Z,123.75
2019-03-25T16:57:44.823Z,129.38
2019-03-25T16:58:44.996Z,106.88
2019-03-25T16:59:45.165Z,90.00
2019-03-25T17:00:45.337Z,90.00
2019-03-25T17:01:45.512Z,78.75
2019-03-25T17:02:45.677Z,78.75
2019-03-25T17:03:45.842Z,106.88
2019-03-25T17:04:46.007Z,118.13
2019-03-25T17:05:46.180Z,112.50
2019-03-25T17:06:46.350Z,106.88
2019-03-25T17:07:46.522Z,101.25
2019-03-25T17:08:46.694Z,90.00
2019-03-25T17:09:46.863Z,84.38
2019-03-25T17:10:47.037Z,84.38
2019-03-25T17:11:47.207Z,90.00
2019-03-25T17:12:47.373Z,95.63
2019-03-25T17:13:47.545Z,90.00
2019-03-25T17:14:47.715Z,90.00
2019-03-25T17:15:47.885Z,84.38
2019-03-25T17:16:48.056Z,90.00
2019-03-25T17:17:48.219Z,90.00
2019-03-25T17:18:48.409Z,78.75
2019-03-25T17:19:48.568Z,73.13
2019-03-25T17:20:48.738Z,67.50
2019-03-25T17:21:57.651Z,67.50
2019-03-25T17:22:49.077Z,67.50
2019-03-25T17:23:49.250Z,61.88
2019-03-25T17:24:49.420Z,56.25
2019-03-25T17:25:53.249Z,50.63
2019-03-25T17:26:49.762Z,45.00
2019-03-25T17:27:49.930Z,39.38
2019-03-25T17:28:50.137Z,39.38
2019-03-25T17:29:50.277Z,33.75
2019-03-25T17:30:50.447Z,33.75
2019-03-25T17:31:50.618Z,28.13
2019-03-25T17:32:50.789Z,28.13
2019-03-25T17:33:50.959Z,22.50
2019-03-25T17:34:51.131Z,16.88
2019-03-25T17:35:51.317Z,16.88
2019-03-25T17:36:51.486Z,11.25
2019-03-25T17:37:51.655Z,11.25
2019-03-25T17:38:51.822Z,11.25
2019-03-25T17:39:51.991Z,11.25
2019-03-25T17:40:52.162Z,5.63
2019-03-25T17:41:52.373Z,5.63
2019-03-25T17:42:52.502Z,5.63
2019-03-25T17:43:52.672Z,5.63
2019-03-25T17:44:52.842Z,5.63
2019-03-25T17:45:53.018Z,5.63
2019-03-25T17:46:53.184Z,5.63
2019-03-25T17:47:53.361Z,5.63
2019-03-25T17:48:53.528Z,5.63
2019-03-25T17:49:53.695Z,5.63
2019-03-25T17:50:53.865Z,0.00
2019-03-25T17:51:54.036Z,0.00
2019-03-25T17:52:54.207Z,0.00
2019-03-25T17:53:54.379Z,0.00
2019-03-25T17:54:54.604Z,0.00
2019-03-25T17:55:54.768Z,0.00
2019-03-25T17:56:54.934Z,0.00
2019-03-25T17:57:55.103Z,0.00
2019-03-25T17:58:55.263Z,0.00
2019-03-25T17:59:55.435Z,0.00
2019-03-25T18:00:55.610Z,0.00
2019-03-25T18:01:55.776Z,0.00
2019-03-25T18:02:55.945Z,0.00
2019-03-25T18:03:56.116Z,0.00
2019-03-25T18:04:56.286Z,0.00
2019-03-25T18:05:56.457Z,0.00
2019-03-25T18:06:56.628Z,0.00
2019-03-25T18:07:56.808Z,0.00
2019-03-25T18:08:56.967Z,0.00
2019-03-25T18:09:57.182Z,0.00
2019-03-25T18:10:57.310Z,0.00
2019-03-25T18:11:57.478Z,0.00
2019-03-25T18:12:57.648Z,0.00
2019-03-25T18:13:57.826Z,0.00
2019-03-25T18:14:58.027Z,0.00
2019-03-25T18:15:58.233Z,0.00
2019-03-25T18:16:58.369Z,0.00
2019-03-25T18:17:58.538Z,0.00
2019-03-25T18:18:58.706Z,0.00
2019-03-25T18:20:00.136Z,0.00
2019-03-25T18:20:59.043Z,0.00
2019-03-25T18:21:59.215Z,0.00
2019-03-25T18:22:59.380Z,0.00
2019-03-25T18:23:59.549Z,0.00
2019-03-25T18:24:59.723Z,0.00
2019-03-25T18:25:59.884Z,0.00
2019-03-25T18:27:00.060Z,0.00
2019-03-25T18:28:00.226Z,0.00
2019-03-25T18:29:00.395Z,0.00
2019-03-25T18:30:00.562Z,0.00
2019-03-25T18:31:00.728Z,0.00
2019-03-25T18:32:00.898Z,0.00
2019-03-25T18:33:01.065Z,0.00
2019-03-25T18:34:01.235Z,0.00
2019-03-25T18:35:01.406Z,0.00
2019-03-25T18:36:01.577Z,0.00
2019-03-25T18:37:01.744Z,0.00
2019-03-25T18:38:01.917Z,0.00
2019-03-25T18:39:02.086Z,0.00
2019-03-25T18:40:02.255Z,0.00
2019-03-25T18:41:02.423Z,0.00
2019-03-25T18:42:02.593Z,0.00
2019-03-25T18:43:02.764Z,0.00
2019-03-25T18:44:02.934Z,0.00
2019-03-25T18:45:03.103Z,0.00
2019-03-25T18:46:03.282Z,0.00
2019-03-25T18:47:03.447Z,0.00
2019-03-25T18:48:03.624Z,0.00
2019-03-25T18:49:03.807Z,0.00
2019-03-25T18:50:03.947Z,0.00
2019-03-25T18:51:04.118Z,0.00
2019-03-25T18:52:04.308Z,0.00
2019-03-25T18:53:04.458Z,0.00
2019-03-25T18:54:04.630Z,0.00
2019-03-25T18:55:04.809Z,0.00
2019-03-25T18:56:04.972Z,0.00
2019-03-25T18:57:05.146Z,0.00
2019-03-25T18:58:05.309Z,0.00
2019-03-25T18:59:05.479Z,0.00
2019-03-25T19:00:05.661Z,0.00
2019-03-25T19:01:05.838Z,0.00
2019-03-25T19:02:05.992Z,0.00
2019-03-25T19:03:06.190Z,0.00
2019-03-25T19:04:06.342Z,0.00
2019-03-25T19:05:06.513Z,0.00
2019-03-25T19:06:06.680Z,0.00
2019-03-25T19:07:06.837Z,0.00
2019-03-25T19:08:07.007Z,0.00
2019-03-25T19:09:07.179Z,0.00
2019-03-25T19:10:07.361Z,0.00
2019-03-25T19:11:07.510Z,0.00
2019-03-25T19:12:07.686Z,0.00
2019-03-25T19:13:07.861Z,0.00
2019-03-25T19:14:08.029Z,0.00
2019-03-25T19:15:08.188Z,0.00
2019-03-25T19:16:08.350Z,0.00
2019-03-25T19:17:08.540Z,0.00
2019-03-25T19:18:08.756Z,0.00
2019-03-25T19:19:08.862Z,0.00
2019-03-25T19:20:09.055Z,0.00
2019-03-25T19:21:09.211Z,0.00
2019-03-25T19:22:09.369Z,0.00
2019-03-25T19:23:09.559Z,0.00
2019-03-25T19:24:09.707Z,0.00
2019-03-25T19:25:09.908Z,0.00
2019-03-25T19:26:10.047Z,0.00
2019-03-25T19:27:10.222Z,0.00
2019-03-25T19:28:10.405Z,0.00
2019-03-25T19:29:10.560Z,0.00
2019-03-25T19:30:10.760Z,0.00
2019-03-25T19:31:10.935Z,0.00
2019-03-25T19:32:11.073Z,0.00
2019-03-25T19:33:11.244Z,0.00
2019-03-25T19:34:11.410Z,0.00
2019-03-25T19:35:11.581Z,0.00
2019-03-25T19:36:11.740Z,0.00
2019-03-25T19:37:11.924Z,0.00
2019-03-25T19:38:12.080Z,0.00
2019-03-25T19:39:12.252Z,0.00
2019-03-25T19:40:12.428Z,0.00
2019-03-25T19:41:12.590Z,0.00
2019-03-25T19:42:12.788Z,0.00
2019-03-25T19:43:12.931Z,0.00
2019-03-25T19:44:13.120Z,0.00
2019-03-25T19:45:13.340Z,0.00
2019-03-25T19:46:13.441Z,0.00
2019-03-25T19:47:13.630Z,0.00
2019-03-25T19:48:13.797Z,0.00
2019-03-25T19:49:13.970Z,0.00
2019-03-25T19:50:14.135Z,0.00
2019-03-25T19:51:14.346Z,0.00
2019-03-25T19:52:14.456Z,0.00
2019-03-25T19:53:19.291Z,0.00
2019-03-25T19:54:14.800Z,0.00
2019-03-25T19:55:14.962Z,0.00
2019-03-25T19:56:15.130Z,0.00
2019-03-25T19:57:15.293Z,0.00
2019-03-25T19:58:15.466Z,0.00
2019-03-25T19:59:15.673Z,0.00
2019-03-25T20:00:15.806Z,0.00
2019-03-25T20:01:15.990Z,0.00
2019-03-25T20:02:19.180Z,0.00
2019-03-25T20:03:16.313Z,0.00
2019-03-25T20:04:16.530Z,0.00
2019-03-25T20:05:16.682Z,0.00
2019-03-25T20:06:25.715Z,0.00
2019-03-25T20:07:16.994Z,0.00
2019-03-25T20:08:17.163Z,0.00
2019-03-25T20:09:17.334Z,0.00
2019-03-25T20:10:17.533Z,0.00
2019-03-25T20:11:17.715Z,0.00
2019-03-25T20:12:17.847Z,0.00
2019-03-25T20:13:18.076Z,0.00
2019-03-25T20:14:18.212Z,0.00
2019-03-25T20:15:18.394Z,0.00